createdAt,value
2023-03-02T00:02:57.610Z,5.68
2023-03-02T00:08:03.550Z,5.53
2023-03-02T00:13:09.202Z,4.75
2023-03-02T00:18:13.219Z,8.38
2023-03-02T00:23:17.665Z,6.10
2023-03-02T00:28:23.088Z,6.80
2023-03-02T00:33:27.645Z,6.15
2023-03-02T00:38:31.702Z,6.80
2023-03-02T00:43:37.120Z,6.78
2023-03-02T00:48:41.268Z,4.93
2023-03-02T00:53:46.367Z,5.47
2023-03-02T00:58:51.790Z,4.20
2023-03-02T01:03:56.394Z,4.35
2023-03-02T01:09:00.601Z,5.93
2023-03-02T01:14:06.257Z,5.28
2023-03-02T01:19:10.530Z,3.60
2023-03-02T01:24:15.232Z,6.45
2023-03-02T01:29:20.857Z,6.75
2023-03-02T01:34:26.603Z,5.15
2023-03-02T01:39:31.080Z,5.22
2023-03-02T01:44:42.856Z,7.65
2023-03-02T01:49:53.770Z,8.32
2023-03-02T01:55:03.246Z,5.38
2023-03-02T02:00:13.782Z,4.82
2023-03-02T02:05:24.592Z,5.07
2023-03-02T02:10:30.226Z,9.60
2023-03-02T02:15:36.680Z,10.68
2023-03-02T02:20:46.111Z,8.37
2023-03-02T02:26:12.319Z,7.75
2023-03-02T02:31:22.889Z,11.75
2023-03-02T02:36:33.539Z,10.85
2023-03-02T02:41:43.684Z,13.70
2023-03-02T02:46:48.060Z,17.30
2023-03-02T02:51:52.487Z,17.00
2023-03-02T02:57:02.895Z,14.88
2023-03-02T03:02:08.348Z,19.67
2023-03-02T03:07:21.998Z,21.13
2023-03-02T03:12:30.524Z,24.45
2023-03-02T03:17:34.753Z,27.45
2023-03-02T03:22:40.189Z,25.10
2023-03-02T03:27:48.536Z,27.88
2023-03-02T03:32:53.337Z,30.70
2023-03-02T03:37:57.478Z,34.10
2023-03-02T03:43:03.711Z,27.63
2023-03-02T03:48:08.382Z,28.15
2023-03-02T03:53:12.725Z,30.75
2023-03-02T03:58:18.709Z,28.10
2023-03-02T04:03:24.062Z,28.20
2023-03-02T04:08:28.195Z,29.25
2023-03-02T04:13:34.580Z,30.98
2023-03-02T04:18:39.020Z,31.50
2023-03-02T04:23:43.349Z,29.20
2023-03-02T04:28:50.905Z,34.15
2023-03-02T04:33:56.344Z,31.00
2023-03-02T04:39:00.697Z,28.88
2023-03-02T04:44:06.417Z,28.23
2023-03-02T04:49:10.569Z,28.77
2023-03-02T04:54:19.000Z,28.95
2023-03-02T04:59:27.518Z,29.85
2023-03-02T05:04:32.108Z,30.35
2023-03-02T05:09:36.328Z,33.88
2023-03-02T05:14:41.732Z,34.70
2023-03-02T05:19:46.111Z,31.70
2023-03-02T05:24:50.214Z,37.70
2023-03-02T05:29:55.683Z,30.40
2023-03-02T05:35:00.745Z,31.40
2023-03-02T05:40:06.594Z,35.88
2023-03-02T05:45:21.947Z,30.65
2023-03-02T05:50:26.065Z,27.90
2023-03-02T05:55:30.292Z,27.90
2023-03-02T06:00:35.986Z,32.92
2023-03-02T06:05:40.803Z,29.98
2023-03-02T06:10:47.344Z,34.17
2023-03-02T06:15:58.668Z,29.55
2023-03-02T06:21:03.801Z,32.35
2023-03-02T06:26:13.172Z,30.95
2023-03-02T06:31:18.776Z,27.95
2023-03-02T06:36:23.150Z,30.92
2023-03-02T06:41:27.686Z,34.17
2023-03-02T06:46:33.497Z,29.67
2023-03-02T06:51:38.630Z,29.17
2023-03-02T06:56:42.660Z,31.65
2023-03-02T07:01:50.555Z,34.72
2023-03-02T07:06:54.871Z,31.02
2023-03-02T07:11:58.994Z,26.98
2023-03-02T07:17:05.985Z,34.58
2023-03-02T07:22:10.087Z,27.38
2023-03-02T07:27:14.335Z,36.22
2023-03-02T07:32:19.835Z,30.88
2023-03-02T07:37:23.984Z,31.60
2023-03-02T07:42:28.034Z,31.15
2023-03-02T07:47:36.143Z,36.53
2023-03-02T07:52:40.288Z,32.97
2023-03-02T07:57:44.475Z,30.42
2023-03-02T08:02:50.214Z,33.88
2023-03-02T08:07:54.416Z,32.33
2023-03-02T08:12:58.493Z,28.15
2023-03-02T08:18:03.898Z,29.80
2023-03-02T08:23:08.442Z,32.83
2023-03-02T08:28:12.534Z,33.15
2023-03-02T08:33:18.467Z,31.50
2023-03-02T08:38:22.573Z,27.75
2023-03-02T08:43:27.633Z,33.95
2023-03-02T08:48:33.593Z,30.60
2023-03-02T08:53:40.780Z,30.00
2023-03-02T08:58:55.015Z,30.15
2023-03-02T09:04:01.288Z,27.65
2023-03-02T09:09:06.231Z,25.37
2023-03-02T09:14:11.186Z,23.58
2023-03-02T09:19:16.658Z,22.92
2023-03-02T09:24:20.891Z,21.13
2023-03-02T09:29:25.435Z,20.10
2023-03-02T09:34:30.992Z,22.80
2023-03-02T09:39:35.168Z,20.55
2023-03-02T09:45:22.157Z,21.98
2023-03-02T09:50:35.782Z,20.50
2023-03-02T09:55:39.983Z,20.25
2023-03-02T10:00:45.530Z,19.25
2023-03-02T10:05:58.324Z,18.80
2023-03-02T10:11:13.112Z,18.60
2023-03-02T10:16:32.533Z,16.08
2023-03-02T10:21:44.101Z,15.38
2023-03-02T10:26:59.008Z,15.60
2023-03-02T10:32:18.411Z,17.35
2023-03-02T10:37:26.682Z,16.17
2023-03-02T10:42:35.401Z,22.92
2023-03-02T10:47:40.888Z,15.07
2023-03-02T10:53:00.233Z,17.42
2023-03-02T10:58:08.979Z,13.65
2023-03-02T11:03:26.143Z,13.95
2023-03-02T11:08:33.003Z,14.73
2023-03-02T11:13:42.797Z,18.85
2023-03-02T11:18:54.075Z,15.70
2023-03-02T11:24:11.349Z,17.27
2023-03-02T11:29:27.448Z,17.23
2023-03-02T11:34:43.431Z,14.48
2023-03-02T11:40:16.806Z,14.65
2023-03-02T11:45:27.350Z,15.13
2023-03-02T11:50:38.076Z,15.10
2023-03-02T11:55:48.747Z,14.23
2023-03-02T12:00:55.361Z,15.27
2023-03-02T12:11:35.472Z,13.50
2023-03-02T12:16:41.907Z,15.60
2023-03-02T12:32:24.538Z,19.83
2023-03-02T12:37:33.042Z,17.63
2023-03-02T12:42:51.249Z,15.65
2023-03-02T12:48:04.403Z,12.73
2023-03-02T12:53:19.833Z,15.32
2023-03-02T12:58:29.043Z,16.88
2023-03-02T13:03:33.430Z,16.90
2023-03-02T13:08:37.887Z,16.33
2023-03-02T13:13:46.111Z,16.60
2023-03-02T13:18:53.901Z,13.77
2023-03-02T13:24:03.430Z,14.88
2023-03-02T13:29:28.997Z,11.30
2023-03-02T13:34:48.263Z,13.48
2023-03-02T13:40:04.985Z,11.50
2023-03-02T13:50:37.951Z,17.08
2023-03-02T13:55:42.130Z,13.07
2023-03-02T14:00:48.864Z,11.63
2023-03-02T14:05:53.523Z,12.82
2023-03-02T14:11:08.285Z,13.20
2023-03-02T14:16:16.284Z,11.50
2023-03-02T14:21:23.875Z,11.80
2023-03-02T14:26:35.368Z,12.45
2023-03-02T14:31:40.720Z,12.13
2023-03-02T14:36:48.203Z,9.48
2023-03-02T14:41:54.459Z,10.15
2023-03-02T14:47:02.905Z,10.30
2023-03-02T14:52:15.023Z,10.30
2023-03-02T14:57:21.860Z,7.93
2023-03-02T15:02:30.013Z,8.18
2023-03-02T15:07:34.122Z,12.05
2023-03-02T15:12:38.175Z,8.77
2023-03-02T15:17:46.867Z,9.23
2023-03-02T15:22:52.582Z,8.60
2023-03-02T15:27:58.131Z,9.75
2023-03-02T15:33:04.510Z,10.75
2023-03-02T15:38:19.578Z,13.15
2023-03-02T15:43:24.325Z,10.32
2023-03-02T15:48:30.790Z,14.18
2023-03-02T15:53:38.090Z,8.98
2023-03-02T15:58:46.661Z,14.43
2023-03-02T16:03:52.118Z,10.57
2023-03-02T16:08:56.367Z,11.48
2023-03-02T16:14:00.373Z,11.35
2023-03-02T16:19:05.795Z,10.40
2023-03-02T16:24:10.538Z,9.60
2023-03-02T16:29:15.286Z,11.43
2023-03-02T16:34:20.845Z,9.05
2023-03-02T16:39:24.965Z,11.25
2023-03-02T16:44:29.639Z,9.15
2023-03-02T16:49:35.111Z,8.70
2023-03-02T16:54:39.179Z,9.73
2023-03-02T16:59:43.348Z,10.40
2023-03-02T17:04:48.741Z,9.38
2023-03-02T17:09:52.767Z,11.63
2023-03-02T17:14:56.979Z,9.52
2023-03-02T17:20:02.574Z,9.88
2023-03-02T17:25:07.801Z,10.98
2023-03-02T17:30:13.768Z,12.70
2023-03-02T17:35:19.565Z,9.93
2023-03-02T17:40:24.368Z,15.48
2023-03-02T17:45:30.876Z,14.60
2023-03-02T17:50:37.415Z,10.70
2023-03-02T17:55:41.574Z,10.75
2023-03-02T18:00:46.099Z,11.32
2023-03-02T18:05:51.713Z,10.48
2023-03-02T18:10:56.048Z,10.82
2023-03-02T18:16:00.283Z,12.20
2023-03-02T18:21:06.494Z,11.43
2023-03-02T18:26:12.046Z,11.00
2023-03-02T18:31:18.954Z,9.88
2023-03-02T18:36:24.542Z,10.43
2023-03-02T18:41:28.597Z,11.43
2023-03-02T18:46:33.603Z,11.18
2023-03-02T18:51:45.523Z,12.38
2023-03-02T18:56:49.641Z,12.20
2023-03-02T19:01:53.892Z,15.20
2023-03-02T19:07:00.841Z,10.90
2023-03-02T19:12:05.778Z,10.65
2023-03-02T19:17:09.921Z,14.88
2023-03-02T19:22:16.666Z,13.80
2023-03-02T19:27:21.080Z,14.20
2023-03-02T19:32:26.354Z,18.90
2023-03-02T19:37:32.656Z,21.00
2023-03-02T19:42:39.444Z,12.77
2023-03-02T19:47:47.832Z,11.23
2023-03-02T19:52:54.999Z,15.48
2023-03-02T19:58:02.134Z,11.43
2023-03-02T20:03:08.581Z,15.83
2023-03-02T20:08:17.978Z,13.87
2023-03-02T20:13:22.291Z,11.93
2023-03-02T20:18:26.977Z,15.00
2023-03-02T20:23:32.568Z,15.38
2023-03-02T20:28:37.043Z,15.43
2023-03-02T20:33:46.405Z,14.50
2023-03-02T20:38:56.267Z,16.58
2023-03-02T20:44:00.477Z,14.93
2023-03-02T20:49:06.243Z,21.15
2023-03-02T20:54:11.909Z,17.13
2023-03-02T20:59:16.527Z,15.57
2023-03-02T21:04:20.970Z,16.02
2023-03-02T21:09:26.724Z,15.85
2023-03-02T21:14:30.768Z,18.40
2023-03-02T21:19:35.019Z,16.58
2023-03-02T21:24:40.390Z,17.83
2023-03-02T21:29:44.486Z,18.33
2023-03-02T21:34:48.611Z,18.33
2023-03-02T21:39:54.166Z,17.42
2023-03-02T21:44:58.264Z,16.20
2023-03-02T21:50:03.181Z,19.55
2023-03-02T21:55:13.309Z,16.23
2023-03-02T22:00:23.058Z,17.67
2023-03-02T22:05:28.083Z,17.58
2023-03-02T22:10:38.851Z,22.63
2023-03-02T22:15:43.060Z,17.00
2023-03-02T22:20:50.854Z,18.13
2023-03-02T22:26:02.889Z,17.70
2023-03-02T22:31:18.477Z,18.35
2023-03-02T22:36:25.136Z,18.50
2023-03-02T22:41:30.578Z,20.73
2023-03-02T22:46:34.714Z,17.17
2023-03-02T22:51:38.786Z,19.05
2023-03-02T22:56:48.656Z,18.75
2023-03-02T23:01:53.952Z,18.05
2023-03-02T23:07:00.707Z,18.67
2023-03-02T23:12:15.932Z,20.77
2023-03-02T23:17:22.562Z,16.77
2023-03-02T23:22:29.829Z,20.35
2023-03-02T23:27:35.394Z,15.85
2023-03-02T23:32:39.499Z,17.58
2023-03-02T23:37:43.600Z,17.13
2023-03-02T23:42:49.736Z,17.27
2023-03-02T23:47:53.794Z,18.73
2023-03-02T23:52:57.772Z,19.85
2023-03-02T23:58:03.141Z,19.80
